createdAt,value
2024-01-06T00:01:12.311Z,95640.47
2024-01-06T00:03:39.052Z,95650.41
2024-01-06T00:06:06.141Z,95644.06
2024-01-06T00:08:32.664Z,95651.22
2024-01-06T00:10:59.166Z,95649.72
2024-01-06T00:13:25.716Z,95650.31
2024-01-06T00:15:52.303Z,95651.31
2024-01-06T00:18:20.091Z,95645.66
2024-01-06T00:20:46.742Z,95640.13
2024-01-06T00:23:13.198Z,95648.44
2024-01-06T00:25:40.297Z,95640.91
2024-01-06T00:28:06.779Z,95645.66
2024-01-06T00:30:33.480Z,95643.38
2024-01-06T00:33:00.027Z,95647.03
2024-01-06T00:35:26.540Z,95649.63
2024-01-06T00:37:53.434Z,95648.06
2024-01-06T00:40:20.793Z,95641.38
2024-01-06T00:42:47.360Z,95638.56
2024-01-06T00:45:14.091Z,95642.09
2024-01-06T00:47:40.692Z,95635.94
2024-01-06T00:50:07.594Z,95641.03
2024-01-06T00:52:34.060Z,95642.16
2024-01-06T00:55:00.577Z,95646.69
2024-01-06T00:57:27.094Z,95645.19
2024-01-06T00:59:54.657Z,95650.88
2024-01-06T01:02:21.138Z,95650.72
2024-01-06T01:04:48.712Z,95652.94
2024-01-06T01:07:15.300Z,95657.31
2024-01-06T01:09:41.917Z,95657.47
2024-01-06T01:12:08.480Z,95661.22
2024-01-06T01:14:35.000Z,95662.56
2024-01-06T01:17:01.480Z,95651.84
2024-01-06T01:19:28.122Z,95662.75
2024-01-06T01:21:56.747Z,95650.50
2024-01-06T01:24:23.998Z,95658.59
2024-01-06T01:26:51.095Z,95660.59
2024-01-06T01:29:18.315Z,95664.78
2024-01-06T01:31:44.859Z,95666.09
2024-01-06T01:34:11.667Z,95669.31
2024-01-06T01:36:38.312Z,95674.22
2024-01-06T01:39:05.055Z,95681.59
2024-01-06T01:41:32.525Z,95676.44
2024-01-06T01:43:59.483Z,95674.00
2024-01-06T01:46:30.427Z,95682.63
2024-01-06T01:48:58.538Z,95662.84
2024-01-06T01:51:30.610Z,95675.53
2024-01-06T01:54:02.136Z,95680.59
2024-01-06T01:56:30.285Z,95677.44
2024-01-06T01:58:56.819Z,95676.53
2024-01-06T02:01:23.457Z,95675.91
2024-01-06T02:03:50.110Z,95668.09
2024-01-06T02:06:16.764Z,95657.38
2024-01-06T02:08:43.295Z,95664.91
2024-01-06T02:11:09.813Z,95663.28
2024-01-06T02:13:37.656Z,95660.84
2024-01-06T02:16:05.856Z,95655.69
2024-01-06T02:18:33.290Z,95662.72
2024-01-06T02:21:02.353Z,95656.88
2024-01-06T02:23:30.031Z,95662.84
2024-01-06T02:25:57.712Z,95660.66
2024-01-06T02:28:24.172Z,95661.09
2024-01-06T02:30:51.397Z,95657.91
2024-01-06T02:33:20.418Z,95659.56
2024-01-06T02:35:47.742Z,95665.50
2024-01-06T02:38:14.291Z,95659.34
2024-01-06T02:40:40.840Z,95661.66
2024-01-06T02:43:07.304Z,95670.41
2024-01-06T02:45:33.943Z,95663.09
2024-01-06T02:48:00.593Z,95649.44
2024-01-06T02:50:27.130Z,95662.75
2024-01-06T02:52:53.606Z,95657.72
2024-01-06T02:55:20.151Z,95667.56
2024-01-06T02:57:46.764Z,95659.91
2024-01-06T03:00:14.093Z,95655.69
2024-01-06T03:02:43.037Z,95650.13
2024-01-06T03:05:11.446Z,95651.31
2024-01-06T03:07:37.970Z,95651.50
2024-01-06T03:10:04.767Z,95647.13
2024-01-06T03:12:31.304Z,95655.28
2024-01-06T03:14:57.821Z,95658.66
2024-01-06T03:17:24.310Z,95649.09
2024-01-06T03:19:51.081Z,95650.56
2024-01-06T03:22:17.713Z,95650.72
2024-01-06T03:24:44.300Z,95646.00
2024-01-06T03:27:11.029Z,95661.31
2024-01-06T03:29:37.820Z,95650.88
2024-01-06T03:32:04.606Z,95667.75
2024-01-06T03:34:31.231Z,95669.66
2024-01-06T03:36:57.722Z,95667.84
2024-01-06T03:39:24.227Z,95675.19
2024-01-06T03:41:50.701Z,95668.38
2024-01-06T03:44:17.226Z,95671.84
2024-01-06T03:46:43.773Z,95664.41
2024-01-06T03:49:10.356Z,95674.00
2024-01-06T03:51:36.995Z,95672.19
2024-01-06T03:54:03.680Z,95663.63
2024-01-06T03:56:30.153Z,95668.69
2024-01-06T03:58:56.636Z,95680.53
2024-01-06T04:01:23.227Z,95682.13
2024-01-06T04:03:49.883Z,95677.03
2024-01-06T04:06:16.609Z,95677.41
2024-01-06T04:08:43.574Z,95685.50
2024-01-06T04:11:10.116Z,95681.16
2024-01-06T04:13:36.621Z,95681.78
2024-01-06T04:16:03.798Z,95687.81
2024-01-06T04:18:30.438Z,95691.00
2024-01-06T04:20:58.051Z,95694.84
2024-01-06T04:23:26.338Z,95694.34
2024-01-06T04:25:54.195Z,95700.56
2024-01-06T04:28:20.867Z,95693.13
2024-01-06T04:30:47.560Z,95712.44
2024-01-06T04:33:14.369Z,95705.16
2024-01-06T04:35:40.992Z,95712.75
2024-01-06T04:38:07.451Z,95709.97
2024-01-06T04:40:34.006Z,95713.72
2024-01-06T04:43:00.487Z,95706.44
2024-01-06T04:45:27.065Z,95706.44
2024-01-06T04:47:53.933Z,95712.59
2024-01-06T04:50:20.867Z,95714.22
2024-01-06T04:52:47.380Z,95711.94
2024-01-06T04:55:14.655Z,95705.06
2024-01-06T04:57:41.174Z,95703.03
2024-01-06T05:00:08.211Z,95713.06
2024-01-06T05:02:35.316Z,95715.16
2024-01-06T05:05:01.943Z,95713.78
2024-01-06T05:07:28.481Z,95707.97
2024-01-06T05:09:55.083Z,95720.28
2024-01-06T05:12:21.650Z,95721.31
2024-01-06T05:14:48.227Z,95713.34
2024-01-06T05:17:14.775Z,95705.13
2024-01-06T05:19:41.376Z,95716.88
2024-01-06T05:22:08.085Z,95714.94
2024-01-06T05:24:34.698Z,95714.59
2024-01-06T05:27:01.225Z,95710.56
2024-01-06T05:29:28.158Z,95718.72
2024-01-06T05:31:55.792Z,95719.06
2024-01-06T05:34:22.462Z,95720.34
2024-01-06T05:36:50.067Z,95722.22
2024-01-06T05:39:17.264Z,95713.78
2024-01-06T05:41:43.799Z,95722.22
2024-01-06T05:44:10.332Z,95728.00
2024-01-06T05:46:36.912Z,95725.22
2024-01-06T05:49:05.727Z,95731.59
2024-01-06T05:51:32.478Z,95736.16
2024-01-06T05:54:01.991Z,95729.50
2024-01-06T05:56:28.903Z,95724.78
2024-01-06T05:58:56.523Z,95730.25
2024-01-06T06:01:23.996Z,95744.44
2024-01-06T06:03:51.785Z,95746.84
2024-01-06T06:06:18.768Z,95742.94
2024-01-06T06:08:46.158Z,95743.28
2024-01-06T06:11:12.679Z,95749.81
2024-01-06T06:13:41.786Z,95753.97
2024-01-06T06:16:10.272Z,95758.91
2024-01-06T06:18:36.994Z,95757.72
2024-01-06T06:21:05.049Z,95764.38
2024-01-06T06:23:32.619Z,95752.69
2024-01-06T06:26:00.438Z,95763.13
2024-01-06T06:28:27.532Z,95767.94
2024-01-06T06:30:54.314Z,95776.22
2024-01-06T06:33:22.112Z,95781.81
2024-01-06T06:35:48.630Z,95788.41
2024-01-06T06:38:15.223Z,95793.88
2024-01-06T06:40:41.701Z,95799.53
2024-01-06T06:43:10.016Z,95812.34
2024-01-06T06:45:36.552Z,95817.28
2024-01-06T06:48:03.310Z,95823.41
2024-01-06T06:50:30.131Z,95813.81
2024-01-06T06:52:56.661Z,95826.47
2024-01-06T06:55:23.125Z,95821.75
2024-01-06T06:57:49.755Z,95832.19
2024-01-06T07:00:17.299Z,95835.03
2024-01-06T07:02:44.006Z,95848.84
2024-01-06T07:05:10.748Z,95843.94
2024-01-06T07:07:37.259Z,95832.81
2024-01-06T07:10:06.760Z,95841.19
2024-01-06T07:12:33.471Z,95842.75
2024-01-06T07:15:00.066Z,95830.31
2024-01-06T07:17:26.690Z,95859.41
2024-01-06T07:19:53.973Z,95855.63
2024-01-06T07:22:21.040Z,95858.16
2024-01-06T07:24:47.649Z,95871.94
2024-01-06T07:27:14.317Z,95873.13
2024-01-06T07:29:40.896Z,95877.72
2024-01-06T07:32:07.491Z,95872.03
2024-01-06T07:34:34.541Z,95875.03
2024-01-06T07:37:01.806Z,95872.84
2024-01-06T07:39:28.443Z,95881.16
2024-01-06T07:41:55.184Z,95881.56
2024-01-06T07:44:25.724Z,95880.84
2024-01-06T07:46:53.282Z,95882.16
2024-01-06T07:49:20.329Z,95892.03
2024-01-06T07:51:47.375Z,95886.25
2024-01-06T07:54:13.966Z,95883.03
2024-01-06T07:56:40.582Z,95887.06
2024-01-06T07:59:07.963Z,95880.63
2024-01-06T08:01:34.514Z,95886.69
2024-01-06T08:04:01.341Z,95878.91
2024-01-06T08:06:28.230Z,95880.69
2024-01-06T08:08:55.877Z,95891.00
2024-01-06T08:11:22.520Z,95903.16
2024-01-06T08:13:49.091Z,95893.09
2024-01-06T08:16:15.635Z,95901.47
2024-01-06T08:18:42.373Z,95905.94
2024-01-06T08:21:08.932Z,95902.59
2024-01-06T08:23:35.766Z,95907.41
2024-01-06T08:26:02.305Z,95918.25
2024-01-06T08:28:28.889Z,95916.81
2024-01-06T08:30:55.576Z,95915.13
2024-01-06T08:33:22.293Z,95917.63
2024-01-06T08:35:54.795Z,95927.38
2024-01-06T08:38:23.593Z,95930.09
2024-01-06T08:40:51.385Z,95925.66
2024-01-06T08:43:19.276Z,95930.19
2024-01-06T08:45:45.904Z,95931.72
2024-01-06T08:48:14.790Z,95928.09
2024-01-06T08:50:41.682Z,95929.66
2024-01-06T08:53:08.226Z,95927.50
2024-01-06T08:55:34.722Z,95938.78
2024-01-06T08:58:01.278Z,95927.63
2024-01-06T09:00:27.955Z,95937.00
2024-01-06T09:02:54.687Z,95944.25
2024-01-06T09:05:21.258Z,95944.56
2024-01-06T09:07:54.563Z,95947.22
2024-01-06T09:10:21.856Z,95935.00
2024-01-06T09:12:49.065Z,95942.50
2024-01-06T09:15:15.918Z,95941.31
2024-01-06T09:17:42.831Z,95937.44
2024-01-06T09:20:09.888Z,95939.81
2024-01-06T09:22:36.581Z,95935.03
2024-01-06T09:25:03.338Z,95943.53
2024-01-06T09:27:29.845Z,95943.72
2024-01-06T09:29:56.375Z,95948.03
2024-01-06T09:32:24.298Z,95941.50
2024-01-06T09:34:51.102Z,95938.94
2024-01-06T09:37:17.781Z,95947.69
2024-01-06T09:39:44.392Z,95938.97
2024-01-06T09:42:12.714Z,95932.72
2024-01-06T09:44:39.410Z,95941.88
2024-01-06T09:47:07.154Z,95949.47
2024-01-06T09:49:36.094Z,95945.94
2024-01-06T09:52:07.613Z,95952.81
2024-01-06T09:54:37.710Z,95951.31
2024-01-06T09:57:07.211Z,95946.78
2024-01-06T09:59:36.064Z,95941.63
2024-01-06T10:02:04.906Z,95941.97
2024-01-06T10:04:31.725Z,95943.00
2024-01-06T10:06:58.302Z,95940.88
2024-01-06T10:09:29.188Z,95931.81
2024-01-06T10:11:57.710Z,95931.81
2024-01-06T10:14:25.219Z,95935.72
2024-01-06T10:16:53.664Z,95929.88
2024-01-06T10:19:20.805Z,95945.50
2024-01-06T10:21:47.650Z,95938.69
2024-01-06T10:24:14.973Z,95938.69
2024-01-06T10:26:41.598Z,95943.59
2024-01-06T10:29:08.176Z,95938.53
2024-01-06T10:31:35.942Z,95935.94
2024-01-06T10:34:02.945Z,95947.03
2024-01-06T10:36:29.974Z,95951.88
2024-01-06T10:38:57.044Z,95942.31
2024-01-06T10:41:25.118Z,95953.03
2024-01-06T10:43:52.756Z,95957.28
2024-01-06T10:46:24.001Z,95945.88
2024-01-06T10:48:53.573Z,95960.84
2024-01-06T10:51:20.659Z,95962.00
2024-01-06T10:53:49.556Z,95948.00
2024-01-06T10:56:17.019Z,95960.53
2024-01-06T10:58:48.472Z,95963.44
2024-01-06T11:01:19.388Z,95956.63
2024-01-06T11:03:49.056Z,95959.75
2024-01-06T11:06:16.052Z,95960.53
2024-01-06T11:08:53.147Z,95964.63
2024-01-06T11:11:20.839Z,95962.34
2024-01-06T11:13:49.141Z,95958.28
2024-01-06T11:16:38.499Z,95962.50
2024-01-06T11:19:42.187Z,95963.94
2024-01-06T11:22:21.939Z,95959.56
2024-01-06T11:24:50.741Z,95970.31
2024-01-06T11:27:24.056Z,95962.66
2024-01-06T11:29:55.568Z,95960.41
2024-01-06T11:32:36.236Z,95961.88
2024-01-06T11:35:11.072Z,95954.88
2024-01-06T11:37:40.558Z,95954.53
2024-01-06T11:40:23.042Z,95948.53
2024-01-06T11:43:02.035Z,95961.06
2024-01-06T11:45:29.627Z,95956.00
2024-01-06T11:48:00.265Z,95952.75
2024-01-06T11:50:28.356Z,95952.56
2024-01-06T11:52:55.929Z,95956.97
2024-01-06T11:55:22.970Z,95949.00
2024-01-06T11:57:51.040Z,95940.06
2024-01-06T12:00:19.008Z,95949.97
2024-01-06T12:02:46.288Z,95949.19
2024-01-06T12:05:18.973Z,95944.59
2024-01-06T12:08:05.795Z,95954.03
2024-01-06T12:10:33.342Z,95936.78
2024-01-06T12:13:03.098Z,95935.00
2024-01-06T12:15:31.874Z,95943.13
2024-01-06T12:17:58.934Z,95941.00
2024-01-06T12:20:27.233Z,95936.47
2024-01-06T12:22:54.536Z,95936.78
2024-01-06T12:25:26.298Z,95944.59
2024-01-06T12:27:54.700Z,95941.84
2024-01-06T12:30:25.056Z,95930.25
2024-01-06T12:32:53.793Z,95929.59
2024-01-06T12:35:23.954Z,95928.44
2024-01-06T12:37:50.719Z,95941.16
2024-01-06T12:40:18.721Z,95939.69
2024-01-06T12:42:46.507Z,95928.13
2024-01-06T12:45:14.326Z,95940.69
2024-01-06T12:47:43.052Z,95936.13
2024-01-06T12:50:10.049Z,95937.41
2024-01-06T12:52:36.895Z,95925.88
2024-01-06T12:55:04.510Z,95934.81
2024-01-06T12:57:31.359Z,95926.69
2024-01-06T12:59:57.989Z,95927.34
2024-01-06T13:02:24.520Z,95921.31
2024-01-06T13:04:51.099Z,95924.22
2024-01-06T13:07:17.779Z,95935.13
2024-01-06T13:09:45.657Z,95931.88
2024-01-06T13:12:12.258Z,95921.47
2024-01-06T13:14:39.407Z,95932.19
2024-01-06T13:17:07.161Z,95934.00
2024-01-06T13:19:35.195Z,95929.63
2024-01-06T13:22:02.236Z,95931.72
2024-01-06T13:24:28.948Z,95931.72
2024-01-06T13:26:55.578Z,95928.97
2024-01-06T13:29:22.093Z,95932.22
2024-01-06T13:31:49.356Z,95934.81
2024-01-06T13:34:16.076Z,95929.28
2024-01-06T13:36:42.882Z,95932.69
2024-01-06T13:39:09.437Z,95940.69
2024-01-06T13:41:36.588Z,95937.72
2024-01-06T13:44:03.321Z,95942.16
2024-01-06T13:46:35.794Z,95939.03
2024-01-06T13:49:03.454Z,95939.38
2024-01-06T13:51:30.095Z,95937.75
2024-01-06T13:53:56.799Z,95940.53
2024-01-06T13:56:23.314Z,95949.47
2024-01-06T13:58:50.391Z,95948.50
2024-01-06T14:01:16.983Z,95939.22
2024-01-06T14:03:43.743Z,95952.41
2024-01-06T14:06:10.499Z,95951.44
2024-01-06T14:08:37.129Z,95954.03
2024-01-06T14:11:03.964Z,95956.66
2024-01-06T14:13:32.939Z,95953.06
2024-01-06T14:16:01.037Z,95959.91
2024-01-06T14:18:28.837Z,95954.53
2024-01-06T14:20:56.723Z,95970.50
2024-01-06T14:23:23.591Z,95964.16
2024-01-06T14:25:50.247Z,95963.47
2024-01-06T14:28:16.761Z,95954.72
2024-01-06T14:30:43.463Z,95961.84
2024-01-06T14:33:11.075Z,95967.41
2024-01-06T14:35:37.585Z,95972.63
2024-01-06T14:38:04.242Z,95978.81
2024-01-06T14:40:31.753Z,95975.53
2024-01-06T14:42:58.765Z,95970.19
2024-01-06T14:45:25.537Z,95973.75
2024-01-06T14:47:52.361Z,95974.59
2024-01-06T14:50:20.050Z,95981.06
2024-01-06T14:52:46.821Z,95980.13
2024-01-06T14:55:14.383Z,95977.03
2024-01-06T14:57:41.053Z,95989.69
2024-01-06T15:00:11.591Z,95986.28
2024-01-06T15:02:39.570Z,95992.63
2024-01-06T15:05:06.967Z,95969.66
2024-01-06T15:07:34.601Z,95989.84
2024-01-06T15:10:05.662Z,95991.44
2024-01-06T15:12:32.429Z,95991.44
2024-01-06T15:15:01.880Z,95999.88
2024-01-06T15:17:28.763Z,96004.09
2024-01-06T15:19:56.457Z,95997.09
2024-01-06T15:22:23.903Z,96005.06
2024-01-06T15:24:57.492Z,96001.78
2024-01-06T15:27:25.206Z,95995.94
2024-01-06T15:29:51.800Z,96008.59
2024-01-06T15:32:18.343Z,96001.75
2024-01-06T15:34:45.263Z,96006.59
2024-01-06T15:37:11.837Z,96004.63
2024-01-06T15:39:38.434Z,96011.63
2024-01-06T15:42:05.159Z,96007.53
2024-01-06T15:44:34.385Z,96006.56
2024-01-06T15:47:00.998Z,96005.69
2024-01-06T15:49:29.253Z,96003.41
2024-01-06T15:51:58.404Z,96021.91
2024-01-06T15:54:25.149Z,96022.69
2024-01-06T15:56:51.932Z,96017.63
2024-01-06T15:59:18.458Z,96016.16
2024-01-06T16:01:45.268Z,96019.41
2024-01-06T16:04:12.170Z,96030.72
2024-01-06T16:06:38.943Z,96023.09
2024-01-06T16:09:06.964Z,96020.31
2024-01-06T16:11:34.530Z,96023.31
2024-01-06T16:14:01.058Z,96020.03
2024-01-06T16:16:30.489Z,96013.50
2024-01-06T16:18:57.339Z,96022.94
2024-01-06T16:21:25.280Z,96018.69
2024-01-06T16:23:53.431Z,96027.38
2024-01-06T16:26:21.224Z,96027.53
2024-01-06T16:28:47.729Z,96033.19
2024-01-06T16:31:14.374Z,96030.94
2024-01-06T16:33:41.147Z,96021.78
2024-01-06T16:36:11.336Z,96027.19
2024-01-06T16:38:37.899Z,96028.09
2024-01-06T16:41:04.974Z,96036.84
2024-01-06T16:43:33.586Z,96035.28
2024-01-06T16:46:00.184Z,96033.28
2024-01-06T16:48:27.070Z,96035.22
2024-01-06T16:50:53.775Z,96027.75
2024-01-06T16:53:20.304Z,96035.72
2024-01-06T16:55:46.785Z,96033.59
2024-01-06T16:58:13.409Z,96035.56
2024-01-06T17:00:40.175Z,96036.34
2024-01-06T17:03:06.765Z,96035.38
2024-01-06T17:05:34.559Z,96027.88
2024-01-06T17:08:01.099Z,96042.38
2024-01-06T17:10:27.666Z,96047.03
2024-01-06T17:12:55.527Z,96049.31
2024-01-06T17:15:25.777Z,96041.88
2024-01-06T17:17:52.397Z,96051.66
2024-01-06T17:20:18.992Z,96047.13
2024-01-06T17:22:46.001Z,96059.09
2024-01-06T17:25:16.114Z,96061.16
2024-01-06T17:27:46.295Z,96065.41
2024-01-06T17:30:13.701Z,96066.81
2024-01-06T17:32:42.274Z,96057.38
2024-01-06T17:35:09.277Z,96060.56
2024-01-06T17:37:35.942Z,96048.69
2024-01-06T17:40:03.018Z,96061.25
2024-01-06T17:42:29.649Z,96066.44
2024-01-06T17:44:56.497Z,96062.28
2024-01-06T17:47:23.037Z,96065.19
2024-01-06T17:49:50.110Z,96068.56
2024-01-06T17:52:16.845Z,96069.56
2024-01-06T17:54:43.790Z,96075.72
2024-01-06T17:57:17.231Z,96071.72
2024-01-06T17:59:44.296Z,96087.09
2024-01-06T18:02:10.793Z,96085.44
2024-01-06T18:04:37.503Z,96090.94
2024-01-06T18:07:04.381Z,96085.97
2024-01-06T18:09:31.038Z,96090.41
2024-01-06T18:11:57.572Z,96085.75
2024-01-06T18:14:24.371Z,96080.63
2024-01-06T18:16:50.961Z,96083.38
2024-01-06T18:19:17.624Z,96080.56
2024-01-06T18:21:44.797Z,96077.75
2024-01-06T18:24:11.368Z,96089.53
2024-01-06T18:26:37.963Z,96092.88
2024-01-06T18:29:04.466Z,96091.47
2024-01-06T18:31:31.178Z,96089.63
2024-01-06T18:33:57.964Z,96085.38
2024-01-06T18:36:25.000Z,96090.78
2024-01-06T18:38:52.319Z,96091.75
2024-01-06T18:41:18.787Z,96097.78
2024-01-06T18:43:46.072Z,96095.84
2024-01-06T18:46:12.738Z,96090.81
2024-01-06T18:48:39.532Z,96095.47
2024-01-06T18:51:06.215Z,96102.69
2024-01-06T18:53:32.745Z,96102.38
2024-01-06T18:55:59.339Z,96096.50
2024-01-06T18:58:31.913Z,96091.03
2024-01-06T19:00:58.571Z,96086.47
2024-01-06T19:03:25.183Z,96091.75
2024-01-06T19:05:51.752Z,96097.53
2024-01-06T19:08:19.354Z,96093.31
2024-01-06T19:10:45.973Z,96093.63
2024-01-06T19:13:12.538Z,96089.00
2024-01-06T19:15:42.985Z,96090.34
2024-01-06T19:18:09.893Z,96089.50
2024-01-06T19:20:36.524Z,96089.09
2024-01-06T19:23:09.330Z,96088.72
2024-01-06T19:25:37.287Z,96088.44
2024-01-06T19:28:04.354Z,96091.81
2024-01-06T19:30:31.076Z,96085.16
2024-01-06T19:32:58.735Z,96084.94
2024-01-06T19:35:25.268Z,96083.88
2024-01-06T19:37:51.814Z,96087.09
2024-01-06T19:40:19.606Z,96092.56
2024-01-06T19:42:49.847Z,96087.75
2024-01-06T19:45:16.509Z,96092.66
2024-01-06T19:47:43.078Z,96096.72
2024-01-06T19:50:10.092Z,96091.91
2024-01-06T19:52:37.362Z,96091.38
2024-01-06T19:55:05.181Z,96093.63
2024-01-06T19:57:31.821Z,96086.56
2024-01-06T19:59:59.514Z,96094.56
2024-01-06T20:02:26.373Z,96087.88
2024-01-06T20:04:52.943Z,96094.19
2024-01-06T20:07:20.604Z,96098.28
2024-01-06T20:09:48.256Z,96089.00
2024-01-06T20:12:14.951Z,96092.06
2024-01-06T20:14:42.667Z,96097.69
2024-01-06T20:17:11.319Z,96085.97
2024-01-06T20:19:38.083Z,96089.53
2024-01-06T20:22:07.135Z,96086.88
2024-01-06T20:24:34.137Z,96086.34
2024-01-06T20:27:00.964Z,96093.69
2024-01-06T20:29:27.476Z,96080.25
2024-01-06T20:31:54.132Z,96088.13
2024-01-06T20:34:20.977Z,96092.28
2024-01-06T20:36:48.949Z,96080.19
2024-01-06T20:39:15.455Z,96084.13
2024-01-06T20:41:41.947Z,96088.78
2024-01-06T20:44:10.296Z,96078.16
2024-01-06T20:46:36.992Z,96086.34
2024-01-06T20:49:04.348Z,96071.63
2024-01-06T20:51:30.954Z,96079.00
2024-01-06T20:53:57.533Z,96081.44
2024-01-06T20:56:24.007Z,96086.09
2024-01-06T20:58:50.558Z,96081.75
2024-01-06T21:01:17.114Z,96080.63
2024-01-06T21:03:44.249Z,96086.56
2024-01-06T21:06:11.302Z,96092.13
2024-01-06T21:08:38.884Z,96091.84
2024-01-06T21:11:07.433Z,96085.69
2024-01-06T21:13:33.954Z,96080.31
2024-01-06T21:16:03.932Z,96085.47
2024-01-06T21:18:30.834Z,96078.31
2024-01-06T21:20:57.454Z,96078.84
2024-01-06T21:23:35.550Z,96080.69
2024-01-06T21:26:10.721Z,96087.81
2024-01-06T21:28:38.927Z,96080.50
2024-01-06T21:31:07.543Z,96087.69
2024-01-06T21:33:34.278Z,96090.00
2024-01-06T21:36:01.850Z,96089.75
2024-01-06T21:38:28.316Z,96086.44
2024-01-06T21:40:54.843Z,96085.38
2024-01-06T21:43:21.380Z,96083.59
2024-01-06T21:45:48.015Z,96094.38
2024-01-06T21:48:14.888Z,96089.97
2024-01-06T21:50:41.925Z,96088.78
2024-01-06T21:53:10.119Z,96097.09
2024-01-06T21:55:37.846Z,96099.84
2024-01-06T21:58:04.720Z,96093.63
2024-01-06T22:00:31.376Z,96091.78
2024-01-06T22:02:58.541Z,96094.88
2024-01-06T22:05:25.222Z,96091.97
2024-01-06T22:07:51.741Z,96083.53
2024-01-06T22:10:18.427Z,96093.47
2024-01-06T22:12:45.001Z,96094.97
2024-01-06T22:15:11.499Z,96091.97
2024-01-06T22:17:38.093Z,96086.56
2024-01-06T22:20:05.377Z,96085.38
2024-01-06T22:22:31.939Z,96087.69
2024-01-06T22:24:58.765Z,96091.97
2024-01-06T22:27:26.450Z,96084.84
2024-01-06T22:29:53.025Z,96097.84
2024-01-06T22:32:19.494Z,96090.66
2024-01-06T22:34:46.188Z,96094.56
2024-01-06T22:37:12.967Z,96092.34
2024-01-06T22:39:42.974Z,96095.81
2024-01-06T22:42:09.547Z,96088.63
2024-01-06T22:44:36.214Z,96092.41
2024-01-06T22:47:02.958Z,96082.59
2024-01-06T22:49:29.889Z,96100.25
2024-01-06T22:51:56.752Z,96099.22
2024-01-06T22:54:24.427Z,96106.28
2024-01-06T22:56:50.957Z,96101.09
2024-01-06T22:59:17.582Z,96106.53
2024-01-06T23:01:44.199Z,96105.78
2024-01-06T23:04:10.892Z,96115.22
2024-01-06T23:06:38.022Z,96109.31
2024-01-06T23:09:05.680Z,96110.97
2024-01-06T23:11:32.564Z,96101.53
2024-01-06T23:13:59.251Z,96114.22
2024-01-06T23:16:25.897Z,96108.06
2024-01-06T23:18:54.196Z,96108.22
2024-01-06T23:21:21.481Z,96113.00
2024-01-06T23:23:49.166Z,96115.56
2024-01-06T23:26:16.143Z,96121.41
2024-01-06T23:28:42.679Z,96118.53
2024-01-06T23:31:09.489Z,96120.03
2024-01-06T23:33:36.227Z,96126.22
2024-01-06T23:36:04.084Z,96121.00
2024-01-06T23:38:30.657Z,96125.34
2024-01-06T23:40:57.134Z,96124.56
2024-01-06T23:43:23.636Z,96123.63
2024-01-06T23:45:50.238Z,96129.22
2024-01-06T23:48:16.802Z,96130.19
2024-01-06T23:50:43.469Z,96121.59
2024-01-06T23:53:11.371Z,96120.91
2024-01-06T23:55:37.915Z,96118.75
2024-01-06T23:58:04.849Z,96131.16
